createdAt,value
2023-01-02T00:00:15.878Z,998.91
2023-01-02T00:01:11.867Z,998.90
2023-01-02T00:02:11.855Z,998.90
2023-01-02T00:03:11.981Z,998.90
2023-01-02T00:04:11.826Z,998.84
2023-01-02T00:05:11.807Z,998.81
2023-01-02T00:06:11.794Z,998.77
2023-01-02T00:07:11.796Z,998.70
2023-01-02T00:08:11.752Z,998.66
2023-01-02T00:09:11.770Z,998.66
2023-01-02T00:10:11.721Z,998.65
2023-01-02T00:11:11.732Z,998.64
2023-01-02T00:12:11.756Z,998.65
2023-01-02T00:13:11.678Z,998.63
2023-01-02T00:14:11.659Z,998.61
2023-01-02T00:15:11.644Z,998.58
2023-01-02T00:16:11.648Z,998.57
2023-01-02T00:17:11.615Z,998.49
2023-01-02T00:18:11.634Z,998.49
2023-01-02T00:19:11.580Z,998.47
2023-01-02T00:20:11.571Z,998.47
2023-01-02T00:21:11.555Z,998.46
2023-01-02T00:22:11.535Z,998.42
2023-01-02T00:23:11.546Z,998.44
2023-01-02T00:24:11.551Z,998.37
2023-01-02T00:25:11.494Z,998.34
2023-01-02T00:26:11.482Z,998.30
2023-01-02T00:27:11.461Z,998.26
2023-01-02T00:28:11.462Z,998.23
2023-01-02T00:29:11.431Z,998.29
2023-01-02T00:30:11.435Z,998.23
2023-01-02T00:31:11.520Z,998.24
2023-01-02T00:32:11.374Z,998.19
2023-01-02T00:33:11.393Z,998.17
2023-01-02T00:34:11.353Z,998.18
2023-01-02T00:35:11.337Z,998.12
2023-01-02T00:36:11.312Z,998.14
2023-01-02T00:37:11.307Z,998.13
2023-01-02T00:38:11.333Z,998.15
2023-01-02T00:39:11.265Z,998.19
2023-01-02T00:40:11.247Z,998.15
2023-01-02T00:41:11.238Z,998.15
2023-01-02T00:42:11.220Z,998.12
2023-01-02T00:43:11.227Z,998.19
2023-01-02T00:44:11.214Z,998.17
2023-01-02T00:45:11.174Z,998.15
2023-01-02T00:46:12.370Z,998.13
2023-01-02T00:47:11.143Z,998.21
2023-01-02T00:48:11.122Z,998.20
2023-01-02T00:49:11.108Z,998.20
2023-01-02T00:50:11.160Z,998.29
2023-01-02T00:51:11.084Z,998.31
2023-01-02T00:52:11.058Z,998.24
2023-01-02T00:53:11.046Z,998.25
2023-01-02T00:54:11.042Z,998.23
2023-01-02T00:55:11.016Z,998.16
2023-01-02T00:56:11.037Z,998.15
2023-01-02T00:57:10.985Z,998.14
2023-01-02T00:58:10.975Z,998.23
2023-01-02T00:59:10.960Z,998.21
2023-01-02T01:00:10.938Z,998.21
2023-01-02T01:01:11.125Z,998.22
2023-01-02T01:02:11.037Z,998.22
2023-01-02T01:03:10.973Z,998.22
2023-01-02T01:04:10.884Z,998.22
2023-01-02T01:05:10.860Z,998.21
2023-01-02T01:06:10.836Z,998.24
2023-01-02T01:07:10.866Z,998.31
2023-01-02T01:08:10.808Z,998.28
2023-01-02T01:09:10.794Z,998.25
2023-01-02T01:10:10.779Z,998.24
2023-01-02T01:11:10.788Z,998.19
2023-01-02T01:12:10.743Z,998.16
2023-01-02T01:13:10.732Z,998.17
2023-01-02T01:14:10.722Z,998.15
2023-01-02T01:15:10.710Z,998.16
2023-01-02T01:16:10.800Z,998.16
2023-01-02T01:17:10.668Z,998.17
2023-01-02T01:18:10.653Z,998.15
2023-01-02T01:19:10.640Z,998.19
2023-01-02T01:20:10.622Z,998.14
2023-01-02T01:21:10.634Z,998.10
2023-01-02T01:22:10.596Z,998.04
2023-01-02T01:23:10.581Z,998.05
2023-01-02T01:24:10.576Z,998.07
2023-01-02T01:25:10.550Z,998.05
2023-01-02T01:26:10.547Z,998.05
2023-01-02T01:27:10.537Z,998.05
2023-01-02T01:28:10.531Z,998.08
2023-01-02T01:29:10.497Z,998.08
2023-01-02T01:30:10.480Z,998.09
2023-01-02T01:31:10.506Z,998.09
2023-01-02T01:32:10.440Z,998.08
2023-01-02T01:33:10.455Z,998.02
2023-01-02T01:34:10.422Z,998.03
2023-01-02T01:35:10.403Z,997.93
2023-01-02T01:36:10.376Z,997.96
2023-01-02T01:37:10.360Z,998.01
2023-01-02T01:38:10.368Z,997.96
2023-01-02T01:39:10.328Z,997.93
2023-01-02T01:40:10.315Z,997.97
2023-01-02T01:41:10.301Z,998.03
2023-01-02T01:42:10.284Z,998.05
2023-01-02T01:43:10.293Z,998.01
2023-01-02T01:44:10.258Z,998.02
2023-01-02T01:45:10.236Z,998.06
2023-01-02T01:46:10.304Z,998.01
2023-01-02T01:47:10.204Z,997.99
2023-01-02T01:48:10.217Z,997.98
2023-01-02T01:49:10.177Z,998.00
2023-01-02T01:50:10.194Z,997.98
2023-01-02T01:51:10.145Z,998.00
2023-01-02T01:52:10.128Z,997.97
2023-01-02T01:53:10.147Z,997.98
2023-01-02T01:54:10.172Z,997.96
2023-01-02T01:55:10.088Z,997.90
2023-01-02T01:56:10.080Z,997.93
2023-01-02T01:57:10.051Z,997.96
2023-01-02T01:58:10.042Z,997.90
2023-01-02T01:59:10.031Z,997.82
2023-01-02T02:00:10.006Z,997.83
2023-01-02T02:01:10.060Z,997.75
2023-01-02T02:02:10.120Z,997.73
2023-01-02T02:03:09.985Z,997.66
2023-01-02T02:04:09.944Z,997.68
2023-01-02T02:05:09.967Z,997.67
2023-01-02T02:06:09.915Z,997.66
2023-01-02T02:07:09.899Z,997.62
2023-01-02T02:08:09.886Z,997.58
2023-01-02T02:09:09.883Z,997.55
2023-01-02T02:10:09.855Z,997.59
2023-01-02T02:11:09.863Z,997.61
2023-01-02T02:12:09.825Z,997.60
2023-01-02T02:13:09.835Z,997.58
2023-01-02T02:14:09.824Z,997.53
2023-01-02T02:15:09.863Z,997.52
2023-01-02T02:16:09.797Z,997.57
2023-01-02T02:17:09.766Z,997.63
2023-01-02T02:18:09.765Z,997.53
2023-01-02T02:19:09.750Z,997.55
2023-01-02T02:20:09.726Z,997.60
2023-01-02T02:21:09.682Z,997.60
2023-01-02T02:22:09.673Z,997.57
2023-01-02T02:23:09.667Z,997.51
2023-01-02T02:24:09.668Z,997.57
2023-01-02T02:25:09.621Z,997.52
2023-01-02T02:26:09.614Z,997.52
2023-01-02T02:27:09.589Z,997.53
2023-01-02T02:28:09.619Z,997.54
2023-01-02T02:29:09.575Z,997.62
2023-01-02T02:30:09.552Z,997.63
2023-01-02T02:31:09.529Z,997.61
2023-01-02T02:32:09.573Z,997.63
2023-01-02T02:33:09.503Z,997.64
2023-01-02T02:34:09.505Z,997.60
2023-01-02T02:35:09.468Z,997.60
2023-01-02T02:36:09.464Z,997.55
2023-01-02T02:37:09.436Z,997.55
2023-01-02T02:38:09.424Z,997.48
2023-01-02T02:39:09.418Z,997.51
2023-01-02T02:40:09.393Z,997.53
2023-01-02T02:41:09.407Z,997.54
2023-01-02T02:42:09.363Z,997.55
2023-01-02T02:43:09.351Z,997.57
2023-01-02T02:44:09.341Z,997.52
2023-01-02T02:45:09.312Z,997.56
2023-01-02T02:46:09.431Z,997.53
2023-01-02T02:47:09.287Z,997.54
2023-01-02T02:48:09.291Z,997.55
2023-01-02T02:49:09.259Z,997.54
2023-01-02T02:50:09.253Z,997.59
2023-01-02T02:51:09.223Z,997.60
2023-01-02T02:52:09.224Z,997.62
2023-01-02T02:53:09.200Z,997.61
2023-01-02T02:54:09.203Z,997.59
2023-01-02T02:55:09.183Z,997.60
2023-01-02T02:56:09.148Z,997.62
2023-01-02T02:57:09.141Z,997.62
2023-01-02T02:58:09.122Z,997.64
2023-01-02T02:59:09.105Z,997.66
2023-01-02T03:00:09.093Z,997.73
2023-01-02T03:01:09.124Z,997.71
2023-01-02T03:02:09.179Z,997.64
2023-01-02T03:03:09.147Z,997.71
2023-01-02T03:04:09.029Z,997.69
2023-01-02T03:05:09.011Z,997.63
2023-01-02T03:06:08.992Z,997.62
2023-01-02T03:07:08.990Z,997.75
2023-01-02T03:08:08.968Z,997.71
2023-01-02T03:09:08.950Z,997.65
2023-01-02T03:10:09.008Z,997.69
2023-01-02T03:11:08.918Z,997.72
2023-01-02T03:12:08.901Z,997.62
2023-01-02T03:13:08.882Z,997.67
2023-01-02T03:14:08.871Z,997.66
2023-01-02T03:15:08.855Z,997.67
2023-01-02T03:16:08.881Z,997.69
2023-01-02T03:17:08.816Z,997.60
2023-01-02T03:18:08.813Z,997.60
2023-01-02T03:19:08.789Z,997.61
2023-01-02T03:20:08.775Z,997.59
2023-01-02T03:21:08.781Z,997.57
2023-01-02T03:22:08.743Z,997.57
2023-01-02T03:23:08.727Z,997.60
2023-01-02T03:24:08.718Z,997.54
2023-01-02T03:25:08.694Z,997.51
2023-01-02T03:26:08.714Z,997.59
2023-01-02T03:27:08.669Z,997.57
2023-01-02T03:28:08.648Z,997.54
2023-01-02T03:29:08.635Z,997.52
2023-01-02T03:30:08.626Z,997.58
2023-01-02T03:31:08.671Z,997.56
2023-01-02T03:32:08.587Z,997.61
2023-01-02T03:33:08.564Z,997.57
2023-01-02T03:34:08.555Z,997.58
2023-01-02T03:35:08.543Z,997.59
2023-01-02T03:36:08.571Z,997.61
2023-01-02T03:37:08.510Z,997.62
2023-01-02T03:38:08.518Z,997.66
2023-01-02T03:39:08.472Z,997.66
2023-01-02T03:40:08.457Z,997.69
2023-01-02T03:41:08.437Z,997.65
2023-01-02T03:42:08.431Z,997.66
2023-01-02T03:43:08.426Z,997.69
2023-01-02T03:44:08.395Z,997.67
2023-01-02T03:45:08.390Z,997.70
2023-01-02T03:46:08.411Z,997.70
2023-01-02T03:47:08.377Z,997.71
2023-01-02T03:48:08.333Z,997.69
2023-01-02T03:49:08.315Z,997.71
2023-01-02T03:50:08.300Z,997.68
2023-01-02T03:51:08.281Z,997.72
2023-01-02T03:52:08.278Z,997.68
2023-01-02T03:53:08.279Z,997.74
2023-01-02T03:54:08.251Z,997.72
2023-01-02T03:55:08.219Z,997.69
2023-01-02T03:56:08.207Z,997.68
2023-01-02T03:57:08.190Z,997.73
2023-01-02T03:58:08.210Z,997.72
2023-01-02T03:59:08.178Z,997.70
2023-01-02T04:00:08.164Z,997.78
2023-01-02T04:01:08.157Z,997.71
2023-01-02T04:02:08.249Z,997.63
2023-01-02T04:03:08.104Z,997.59
2023-01-02T04:04:08.123Z,997.64
2023-01-02T04:06:48.122Z,997.60
2023-01-02T04:07:48.103Z,997.60
2023-01-02T04:08:48.091Z,997.63
2023-01-02T04:09:48.234Z,997.61
2023-01-02T04:10:49.844Z,997.60
2023-01-02T04:11:48.035Z,997.66
2023-01-02T04:12:48.031Z,997.61
2023-01-02T04:13:48.005Z,997.56
2023-01-02T04:14:48.004Z,997.54
2023-01-02T04:15:48.025Z,997.57
2023-01-02T04:16:47.958Z,997.61
2023-01-02T04:17:47.945Z,997.65
2023-01-02T04:18:47.956Z,997.63
2023-01-02T04:19:47.911Z,997.68
2023-01-02T04:20:47.902Z,997.65
2023-01-02T04:21:47.883Z,997.67
2023-01-02T04:22:47.905Z,997.65
2023-01-02T04:23:47.864Z,997.62
2023-01-02T04:24:47.838Z,997.62
2023-01-02T04:25:47.831Z,997.64
2023-01-02T04:26:47.807Z,997.65
2023-01-02T04:27:47.812Z,997.62
2023-01-02T04:28:47.824Z,997.68
2023-01-02T04:29:47.753Z,997.68
2023-01-02T04:30:47.807Z,997.67
2023-01-02T04:31:47.722Z,997.64
2023-01-02T04:32:47.753Z,997.62
2023-01-02T04:33:47.743Z,997.68
2023-01-02T04:34:47.705Z,997.66
2023-01-02T04:35:47.664Z,997.68
2023-01-02T04:36:47.659Z,997.73
2023-01-02T04:37:47.650Z,997.69
2023-01-02T04:38:47.620Z,997.70
2023-01-02T04:39:48.080Z,997.73
2023-01-02T04:40:47.591Z,997.74
2023-01-02T04:41:47.565Z,997.77
2023-01-02T04:42:47.563Z,997.75
2023-01-02T04:43:47.651Z,997.79
2023-01-02T04:44:47.674Z,997.73
2023-01-02T04:45:47.556Z,997.71
2023-01-02T04:46:47.491Z,997.77
2023-01-02T04:47:47.470Z,997.72
2023-01-02T04:48:47.980Z,997.78
2023-01-02T04:49:47.498Z,997.76
2023-01-02T04:50:47.744Z,997.78
2023-01-02T04:51:47.525Z,997.72
2023-01-02T04:52:47.399Z,997.74
2023-01-02T04:53:47.378Z,997.78
2023-01-02T04:54:47.827Z,997.75
2023-01-02T04:55:47.373Z,997.74
2023-01-02T04:56:47.360Z,997.70
2023-01-02T04:57:47.370Z,997.74
2023-01-02T04:58:47.313Z,997.76
2023-01-02T04:59:47.284Z,997.72
2023-01-02T05:00:47.892Z,997.72
2023-01-02T05:01:47.416Z,997.73
2023-01-02T05:02:47.418Z,997.75
2023-01-02T05:03:47.332Z,997.71
2023-01-02T05:04:47.211Z,997.78
2023-01-02T05:05:47.473Z,997.79
2023-01-02T05:06:47.194Z,997.79
2023-01-02T05:07:47.186Z,997.78
2023-01-02T05:08:47.179Z,997.81
2023-01-02T05:09:47.140Z,997.84
2023-01-02T05:10:47.140Z,997.85
2023-01-02T05:11:47.098Z,997.91
2023-01-02T05:12:47.090Z,997.92
2023-01-02T05:13:47.890Z,997.89
2023-01-02T05:14:47.065Z,997.85
2023-01-02T05:15:47.226Z,997.82
2023-01-02T05:16:47.032Z,997.82
2023-01-02T05:17:47.016Z,997.85
2023-01-02T05:18:47.039Z,997.88
2023-01-02T05:19:46.998Z,997.93
2023-01-02T05:20:46.979Z,997.90
2023-01-02T05:21:46.938Z,997.87
2023-01-02T05:22:46.932Z,997.88
2023-01-02T05:23:46.928Z,997.86
2023-01-02T05:24:46.895Z,997.85
2023-01-02T05:25:46.902Z,997.86
2023-01-02T05:26:47.298Z,997.88
2023-01-02T05:27:46.851Z,997.79
2023-01-02T05:28:46.959Z,997.86
2023-01-02T05:29:46.971Z,997.81
2023-01-02T05:30:46.795Z,997.86
2023-01-02T05:31:46.796Z,997.80
2023-01-02T05:32:46.763Z,997.75
2023-01-02T05:33:46.747Z,997.83
2023-01-02T05:34:46.808Z,997.80
2023-01-02T05:35:46.719Z,997.88
2023-01-02T05:36:46.721Z,997.83
2023-01-02T05:37:46.911Z,997.91
2023-01-02T05:38:46.780Z,997.95
2023-01-02T05:39:46.653Z,997.96
2023-01-02T05:40:46.670Z,997.98
2023-01-02T05:41:46.623Z,997.92
2023-01-02T05:42:46.601Z,998.02
2023-01-02T05:43:46.629Z,997.95
2023-01-02T05:44:46.603Z,998.04
2023-01-02T05:45:46.551Z,997.94
2023-01-02T05:46:46.563Z,998.00
2023-01-02T05:47:46.528Z,997.94
2023-01-02T05:48:46.535Z,997.93
2023-01-02T05:49:46.487Z,998.01
2023-01-02T05:50:46.524Z,997.96
2023-01-02T05:51:46.459Z,997.94
2023-01-02T05:52:46.458Z,997.89
2023-01-02T05:53:46.445Z,997.95
2023-01-02T05:54:46.411Z,997.94
2023-01-02T05:55:46.399Z,997.96
2023-01-02T05:56:46.405Z,997.96
2023-01-02T05:57:46.371Z,997.95
2023-01-02T05:58:46.359Z,997.98
2023-01-02T05:59:46.337Z,997.97
2023-01-02T06:00:46.540Z,997.99
2023-01-02T06:01:46.444Z,997.92
2023-01-02T06:02:48.444Z,997.93
2023-01-02T06:03:46.334Z,997.95
2023-01-02T06:04:46.578Z,997.93
2023-01-02T06:05:46.232Z,997.92
2023-01-02T06:06:46.246Z,997.91
2023-01-02T06:07:46.198Z,997.87
2023-01-02T06:08:46.188Z,997.88
2023-01-02T06:09:46.402Z,997.94
2023-01-02T06:10:46.190Z,997.88
2023-01-02T06:11:46.194Z,997.82
2023-01-02T06:12:46.123Z,997.87
2023-01-02T06:13:46.145Z,997.87
2023-01-02T06:14:46.097Z,997.87
2023-01-02T06:15:46.071Z,997.93
2023-01-02T06:16:46.143Z,997.92
2023-01-02T06:17:46.048Z,998.02
2023-01-02T06:18:46.023Z,997.96
2023-01-02T06:19:51.876Z,997.99
2023-01-02T06:20:46.073Z,997.92
2023-01-02T06:21:45.971Z,997.95
2023-01-02T06:22:45.959Z,997.90
2023-01-02T06:23:45.944Z,997.95
2023-01-02T06:24:45.987Z,997.97
2023-01-02T06:25:45.906Z,998.04
2023-01-02T06:26:45.895Z,997.97
2023-01-02T06:27:45.885Z,997.94
2023-01-02T06:28:45.880Z,998.01
2023-01-02T06:29:45.840Z,997.98
2023-01-02T06:30:46.004Z,998.03
2023-01-02T06:31:51.161Z,998.04
2023-01-02T06:32:45.801Z,997.99
2023-01-02T06:33:45.775Z,998.01
2023-01-02T06:34:45.777Z,998.11
2023-01-02T06:35:45.747Z,998.08
2023-01-02T06:36:45.738Z,998.08
2023-01-02T06:37:45.790Z,998.06
2023-01-02T06:38:45.822Z,998.03
2023-01-02T06:39:45.679Z,998.02
2023-01-02T06:40:45.668Z,998.02
2023-01-02T06:41:45.651Z,997.96
2023-01-02T06:42:45.631Z,997.97
2023-01-02T06:43:45.700Z,997.99
2023-01-02T06:44:45.611Z,998.01
2023-01-02T06:45:45.672Z,997.96
2023-01-02T06:46:45.566Z,997.97
2023-01-02T06:47:45.554Z,997.94
2023-01-02T06:48:45.537Z,997.97
2023-01-02T06:49:45.531Z,997.99
2023-01-02T06:50:45.584Z,997.91
2023-01-02T06:51:45.503Z,998.00
2023-01-02T06:52:45.468Z,997.91
2023-01-02T06:53:45.455Z,997.97
2023-01-02T06:54:45.447Z,997.95
2023-01-02T06:55:45.434Z,997.99
2023-01-02T06:56:45.414Z,997.98
2023-01-02T06:57:45.395Z,998.01
2023-01-02T06:58:45.385Z,998.00
2023-01-02T06:59:45.356Z,998.04
2023-01-02T07:00:45.359Z,998.02
2023-01-02T07:01:45.540Z,998.08
2023-01-02T07:02:45.406Z,998.14
2023-01-02T07:03:45.292Z,998.05
2023-01-02T07:04:45.381Z,998.14
2023-01-02T07:05:45.275Z,998.04
2023-01-02T07:06:45.256Z,998.04
2023-01-02T07:07:45.277Z,998.08
2023-01-02T07:08:45.234Z,998.11
2023-01-02T07:09:45.225Z,998.03
2023-01-02T07:10:50.898Z,998.11
2023-01-02T07:11:45.157Z,998.08
2023-01-02T07:12:45.142Z,998.18
2023-01-02T07:13:45.292Z,998.15
2023-01-02T07:14:45.221Z,998.15
2023-01-02T07:15:45.104Z,998.19
2023-01-02T07:16:45.127Z,998.17
2023-01-02T07:17:45.076Z,998.15
2023-01-02T07:18:45.089Z,998.12
2023-01-02T07:19:49.831Z,998.14
2023-01-02T07:20:45.027Z,998.17
2023-01-02T07:21:45.001Z,998.17
2023-01-02T07:22:44.989Z,998.17
2023-01-02T07:23:45.005Z,998.22
2023-01-02T07:24:44.954Z,998.19
2023-01-02T07:25:44.983Z,998.31
2023-01-02T07:26:44.920Z,998.25
2023-01-02T07:27:44.902Z,998.24
2023-01-02T07:28:44.879Z,998.25
2023-01-02T07:29:44.871Z,998.27
2023-01-02T07:30:44.851Z,998.22
2023-01-02T07:31:44.928Z,998.27
2023-01-02T07:32:44.822Z,998.28
2023-01-02T07:33:44.799Z,998.35
2023-01-02T07:34:44.792Z,998.47
2023-01-02T07:35:44.768Z,998.23
2023-01-02T07:36:44.776Z,998.46
2023-01-02T07:37:44.805Z,998.52
2023-01-02T07:38:44.724Z,998.40
2023-01-02T07:39:44.728Z,998.40
2023-01-02T07:40:44.687Z,998.39
2023-01-02T07:41:44.693Z,998.40
2023-01-02T07:42:44.687Z,998.41
2023-01-02T07:43:44.673Z,998.41
2023-01-02T07:44:44.661Z,998.47
2023-01-02T07:45:49.693Z,998.47
2023-01-02T07:46:44.592Z,998.43
2023-01-02T07:47:44.576Z,998.47
2023-01-02T07:48:44.605Z,998.45
2023-01-02T07:49:44.550Z,998.45
2023-01-02T07:50:44.526Z,998.59
2023-01-02T07:51:44.548Z,998.54
2023-01-02T07:52:44.537Z,998.41
2023-01-02T07:53:44.486Z,998.48
2023-01-02T07:54:44.460Z,998.47
2023-01-02T07:55:44.469Z,998.40
2023-01-02T07:56:44.431Z,998.48
2023-01-02T07:57:44.514Z,998.46
2023-01-02T07:58:44.416Z,998.48
2023-01-02T07:59:44.381Z,998.53
2023-01-02T08:00:44.400Z,998.58
2023-01-02T08:01:44.428Z,998.53
2023-01-02T08:02:44.404Z,998.49
2023-01-02T08:03:44.376Z,998.54
2023-01-02T08:04:44.319Z,998.57
2023-01-02T08:05:44.281Z,998.59
2023-01-02T08:06:44.304Z,998.62
2023-01-02T08:07:45.162Z,998.59
2023-01-02T08:08:44.236Z,998.60
2023-01-02T08:09:44.222Z,998.62
2023-01-02T08:10:44.199Z,998.59
2023-01-02T08:11:44.199Z,998.65
2023-01-02T08:12:44.243Z,998.65
2023-01-02T08:13:44.156Z,998.64
2023-01-02T08:14:44.142Z,998.68
2023-01-02T08:15:44.140Z,998.66
2023-01-02T08:16:44.161Z,998.74
2023-01-02T08:17:44.094Z,998.70
2023-01-02T08:18:44.100Z,998.68
2023-01-02T08:19:44.094Z,998.71
2023-01-02T08:20:44.043Z,998.76
2023-01-02T08:21:44.023Z,998.73
2023-01-02T08:22:44.014Z,998.76
2023-01-02T08:23:43.991Z,998.72
2023-01-02T08:24:44.008Z,998.81
2023-01-02T08:25:43.974Z,998.84
2023-01-02T08:26:43.976Z,998.89
2023-01-02T08:27:43.927Z,998.85
2023-01-02T08:28:43.913Z,998.98
2023-01-02T08:29:43.920Z,998.87
2023-01-02T08:30:43.920Z,998.95
2023-01-02T08:31:44.248Z,998.94
2023-01-02T08:32:43.845Z,998.87
2023-01-02T08:33:43.844Z,998.93
2023-01-02T08:34:43.809Z,998.94
2023-01-02T08:35:43.858Z,998.95
2023-01-02T08:36:43.777Z,999.01
2023-01-02T08:37:50.112Z,999.10
2023-01-02T08:38:43.748Z,998.96
2023-01-02T08:39:43.752Z,998.98
2023-01-02T08:40:43.716Z,999.02
2023-01-02T08:41:43.752Z,999.01
2023-01-02T08:42:43.679Z,999.06
2023-01-02T08:43:43.667Z,999.05
2023-01-02T08:44:43.652Z,999.08
2023-01-02T08:45:43.768Z,999.05
2023-01-02T08:46:43.651Z,999.18
2023-01-02T08:47:43.611Z,999.10
2023-01-02T08:48:43.586Z,999.21
2023-01-02T08:49:43.579Z,999.28
2023-01-02T08:50:43.556Z,999.14
2023-01-02T08:51:43.546Z,999.17
2023-01-02T08:52:43.566Z,999.23
2023-01-02T08:53:43.507Z,999.27
2023-01-02T08:54:43.489Z,999.33
2023-01-02T08:55:43.488Z,999.33
2023-01-02T08:56:43.456Z,999.27
2023-01-02T08:57:43.447Z,999.22
2023-01-02T08:58:46.238Z,999.23
2023-01-02T08:59:43.422Z,999.39
2023-01-02T09:00:43.404Z,999.25
2023-01-02T09:01:43.534Z,999.35
2023-01-02T09:02:43.510Z,999.33
2023-01-02T09:03:43.364Z,999.33
2023-01-02T09:04:43.360Z,999.36
2023-01-02T09:05:43.316Z,999.27
2023-01-02T09:06:43.342Z,999.41
2023-01-02T09:07:43.282Z,999.35
2023-01-02T09:08:43.265Z,999.36
2023-01-02T09:09:43.323Z,999.42
2023-01-02T09:10:43.241Z,999.46
2023-01-02T09:11:43.281Z,999.41
2023-01-02T09:12:43.197Z,999.48
2023-01-02T09:13:43.188Z,999.43
2023-01-02T09:14:43.163Z,999.44
2023-01-02T09:15:43.204Z,999.48
2023-01-02T09:16:43.140Z,999.45
2023-01-02T09:17:43.137Z,999.53
2023-01-02T09:18:43.105Z,999.50
2023-01-02T09:19:43.111Z,999.53
2023-01-02T09:20:43.088Z,999.56
2023-01-02T09:21:43.117Z,999.59
2023-01-02T09:22:43.092Z,999.65
2023-01-02T09:23:43.027Z,999.62
2023-01-02T09:24:43.055Z,999.59
2023-01-02T09:25:42.992Z,999.71
2023-01-02T09:26:42.995Z,999.65
2023-01-02T09:27:42.962Z,999.68
2023-01-02T09:28:42.983Z,999.68
2023-01-02T09:29:42.950Z,999.72
2023-01-02T09:30:42.928Z,999.74
2023-01-02T09:31:43.033Z,999.72
2023-01-02T09:32:42.877Z,999.73
2023-01-02T09:33:42.874Z,999.76
2023-01-02T09:34:42.879Z,999.87
2023-01-02T09:35:42.833Z,999.73
2023-01-02T09:36:42.843Z,999.80
2023-01-02T09:37:42.800Z,999.78
2023-01-02T09:38:42.809Z,999.87
2023-01-02T09:39:42.849Z,999.88
2023-01-02T09:40:42.761Z,999.80
2023-01-02T09:41:42.750Z,999.82
2023-01-02T09:42:42.754Z,999.90
2023-01-02T09:43:42.706Z,999.87
2023-01-02T09:44:42.710Z,999.85
2023-01-02T09:45:42.718Z,999.92
2023-01-02T09:46:42.790Z,999.96
2023-01-02T09:47:42.652Z,999.88
2023-01-02T09:48:42.646Z,999.95
2023-01-02T09:49:42.613Z,1000.01
2023-01-02T09:50:42.679Z,1000.03
2023-01-02T09:51:42.623Z,1000.00
2023-01-02T09:52:42.597Z,1000.05
2023-01-02T09:53:42.547Z,1000.13
2023-01-02T09:54:42.541Z,1000.13
2023-01-02T09:55:42.527Z,1000.05
2023-01-02T09:56:42.540Z,1000.12
2023-01-02T09:57:42.484Z,1000.24
2023-01-02T09:58:42.504Z,1000.22
2023-01-02T09:59:42.455Z,1000.25
2023-01-02T10:00:42.434Z,1000.28
2023-01-02T10:01:42.578Z,1000.21
2023-01-02T10:02:42.422Z,1000.17
2023-01-02T10:03:42.467Z,1000.19
2023-01-02T10:04:42.393Z,1000.29
2023-01-02T10:05:42.359Z,1000.24
2023-01-02T10:06:42.332Z,1000.28
2023-01-02T10:07:42.406Z,1000.26
2023-01-02T10:08:42.332Z,1000.30
2023-01-02T10:09:42.309Z,1000.35
2023-01-02T10:10:42.278Z,1000.32
2023-01-02T10:11:42.261Z,1000.28
2023-01-02T10:12:42.247Z,1000.42
2023-01-02T10:14:17.545Z,1000.36
2023-01-02T10:14:44.611Z,1000.39
2023-01-02T10:15:42.201Z,1000.33
2023-01-02T10:16:42.172Z,1000.43
2023-01-02T10:17:42.152Z,1000.48
2023-01-02T10:18:42.135Z,1000.49
2023-01-02T10:19:42.135Z,1000.49
2023-01-02T10:20:42.115Z,1000.53
2023-01-02T10:21:42.090Z,1000.55
2023-01-02T10:22:42.091Z,1000.51
2023-01-02T10:23:42.066Z,1000.54
2023-01-02T10:24:42.040Z,1000.51
2023-01-02T10:25:42.041Z,1000.49
2023-01-02T10:26:42.005Z,1000.48
2023-01-02T10:27:42.001Z,1000.53
2023-01-02T10:28:41.972Z,1000.59
2023-01-02T10:29:41.978Z,1000.50
2023-01-02T10:30:41.936Z,1000.53
2023-01-02T10:31:42.153Z,1000.53
2023-01-02T10:32:41.901Z,1000.51
2023-01-02T10:33:41.902Z,1000.51
2023-01-02T10:34:41.868Z,1000.54
2023-01-02T10:35:41.858Z,1000.50
2023-01-02T10:36:41.845Z,1000.49
2023-01-02T10:37:41.827Z,1000.55
2023-01-02T10:38:41.831Z,1000.61
2023-01-02T10:39:41.829Z,1000.57
2023-01-02T10:40:41.847Z,1000.58
2023-01-02T10:41:41.822Z,1000.54
2023-01-02T10:42:41.752Z,1000.70
2023-01-02T10:43:41.727Z,1000.79
2023-01-02T10:44:41.715Z,1000.76
2023-01-02T10:45:41.695Z,1000.76
2023-01-02T10:46:41.757Z,1000.79
2023-01-02T10:47:41.671Z,1000.78
2023-01-02T10:48:42.955Z,1000.94
2023-01-02T10:49:41.631Z,1000.84
2023-01-02T10:50:41.617Z,1000.85
2023-01-02T10:51:41.604Z,1000.92
2023-01-02T10:52:41.581Z,1000.89
2023-01-02T10:53:41.568Z,1000.96
2023-01-02T10:54:47.337Z,1001.01
2023-01-02T10:55:41.586Z,1001.00
2023-01-02T10:56:41.523Z,1000.99
2023-01-02T10:57:41.509Z,1001.06
2023-01-02T10:58:41.533Z,1001.05
2023-01-02T10:59:41.472Z,1001.05
2023-01-02T11:00:41.524Z,1001.11
2023-01-02T11:01:41.636Z,1001.09
2023-01-02T11:02:41.584Z,1000.99
2023-01-02T11:03:41.405Z,1001.06
2023-01-02T11:04:41.395Z,1001.09
2023-01-02T11:05:41.389Z,1001.08
2023-01-02T11:06:41.393Z,1001.07
2023-01-02T11:07:41.328Z,1001.04
2023-01-02T11:08:41.322Z,1001.13
2023-01-02T11:09:41.316Z,1001.19
2023-01-02T11:10:41.319Z,1001.21
2023-01-02T11:11:41.255Z,1001.08
2023-01-02T11:12:41.282Z,1001.05
2023-01-02T11:13:41.223Z,1001.14
2023-01-02T11:14:41.215Z,1001.07
2023-01-02T11:15:41.188Z,1001.13
2023-01-02T11:16:41.319Z,1001.16
2023-01-02T11:17:41.150Z,1001.17
2023-01-02T11:18:41.141Z,1001.10
2023-01-02T11:19:41.190Z,1001.19
2023-01-02T11:20:41.110Z,1001.22
2023-01-02T11:21:41.113Z,1001.27
2023-01-02T11:22:41.072Z,1001.33
2023-01-02T11:23:41.058Z,1001.30
2023-01-02T11:24:41.056Z,1001.38
2023-01-02T11:25:41.071Z,1001.39
2023-01-02T11:26:41.039Z,1001.37
2023-01-02T11:27:40.985Z,1001.45
2023-01-02T11:28:40.996Z,1001.47
2023-01-02T11:29:40.965Z,1001.48
2023-01-02T11:30:40.946Z,1001.50
2023-01-02T11:31:40.963Z,1001.50
2023-01-02T11:32:40.902Z,1001.46
2023-01-02T11:33:40.886Z,1001.43
2023-01-02T11:34:40.907Z,1001.51
2023-01-02T11:35:40.851Z,1001.55
2023-01-02T11:36:40.838Z,1001.51
2023-01-02T11:37:40.834Z,1001.54
2023-01-02T11:38:40.811Z,1001.57
2023-01-02T11:39:40.789Z,1001.53
2023-01-02T11:40:40.768Z,1001.49
2023-01-02T11:41:40.776Z,1001.55
2023-01-02T11:42:40.793Z,1001.52
2023-01-02T11:43:40.726Z,1001.54
2023-01-02T11:44:40.701Z,1001.54
2023-01-02T11:45:40.718Z,1001.61
2023-01-02T11:46:40.670Z,1001.60
2023-01-02T11:47:40.649Z,1001.52
2023-01-02T11:48:40.637Z,1001.59
2023-01-02T11:49:40.619Z,1001.62
2023-01-02T11:50:40.600Z,1001.57
2023-01-02T11:51:40.585Z,1001.57
2023-01-02T11:52:40.610Z,1001.53
2023-01-02T11:53:40.611Z,1001.56
2023-01-02T11:54:40.535Z,1001.62
2023-01-02T11:55:40.526Z,1001.65
2023-01-02T11:56:40.535Z,1001.68
2023-01-02T11:57:40.481Z,1001.69
2023-01-02T11:58:40.476Z,1001.75
2023-01-02T11:59:40.457Z,1001.75
2023-01-02T12:00:40.433Z,1001.78
2023-01-02T12:01:40.524Z,1001.77
2023-01-02T12:02:40.464Z,1001.77
2023-01-02T12:03:40.456Z,1001.82
2023-01-02T12:04:40.381Z,1001.83
2023-01-02T12:05:40.350Z,1001.87
2023-01-02T12:06:40.339Z,1001.90
2023-01-02T12:07:40.313Z,1001.98
2023-01-02T12:08:43.405Z,1001.99
2023-01-02T12:09:40.298Z,1002.01
2023-01-02T12:10:40.265Z,1002.00
2023-01-02T12:11:40.249Z,1002.00
2023-01-02T12:12:40.236Z,1002.05
2023-01-02T12:13:40.212Z,1002.06
2023-01-02T12:14:40.205Z,1002.09
2023-01-02T12:15:40.181Z,1001.91
2023-01-02T12:16:40.193Z,1001.99
2023-01-02T12:17:40.170Z,1002.00
2023-01-02T12:18:40.134Z,1002.10
2023-01-02T12:19:40.136Z,1002.15
2023-01-02T12:20:40.101Z,1002.12
2023-01-02T12:21:40.085Z,1002.19
2023-01-02T12:22:40.062Z,1002.15
2023-01-02T12:23:40.046Z,1002.22
2023-01-02T12:24:40.048Z,1002.15